sensor_id;sensor_type;location;lat;lon;timestamp;temperature;humidity
6355;DHT22;3210;48.708;9.030;2022-08-04T00:01:01;20.30;1.00
6355;DHT22;3210;48.708;9.030;2022-08-04T00:03:34;20.10;1.00
6355;DHT22;3210;48.708;9.030;2022-08-04T00:06:10;20.10;31.30
6355;DHT22;3210;48.708;9.030;2022-08-04T00:08:43;20.10;99.90
6355;DHT22;3210;48.708;9.030;2022-08-04T00:11:13;20.20;90.90
6355;DHT22;3210;48.708;9.030;2022-08-04T00:13:43;20.10;99.90
6355;DHT22;3210;48.708;9.030;2022-08-04T00:16:12;20.10;99.90
6355;DHT22;3210;48.708;9.030;2022-08-04T00:18:45;20.10;99.90
6355;DHT22;3210;48.708;9.030;2022-08-04T00:21:18;20.00;99.90
6355;DHT22;3210;48.708;9.030;2022-08-04T00:23:48;19.90;99.90
6355;DHT22;3210;48.708;9.030;2022-08-04T00:26:17;19.90;99.90
6355;DHT22;3210;48.708;9.030;2022-08-04T00:28:44;19.80;99.90
6355;DHT22;3210;48.708;9.030;2022-08-04T00:31:13;19.80;99.90
6355;DHT22;3210;48.708;9.030;2022-08-04T00:33:44;19.70;99.90
6355;DHT22;3210;48.708;9.030;2022-08-04T00:36:12;19.70;99.90
6355;DHT22;3210;48.708;9.030;2022-08-04T00:38:40;19.80;99.90
6355;DHT22;3210;48.708;9.030;2022-08-04T00:41:16;19.60;99.90
6355;DHT22;3210;48.708;9.030;2022-08-04T00:43:57;19.60;99.90
6355;DHT22;3210;48.708;9.030;2022-08-04T00:49:59;19.50;99.90
6355;DHT22;3210;48.708;9.030;2022-08-04T00:52:38;19.40;99.90
6355;DHT22;3210;48.708;9.030;2022-08-04T00:55:36;19.30;99.90
6355;DHT22;3210;48.708;9.030;2022-08-04T00:58:30;19.40;99.90
6355;DHT22;3210;48.708;9.030;2022-08-04T01:01:01;19.40;99.90
6355;DHT22;3210;48.708;9.030;2022-08-04T01:03:59;19.30;99.90
6355;DHT22;3210;48.708;9.030;2022-08-04T01:06:34;19.20;1.00
6355;DHT22;3210;48.708;9.030;2022-08-04T01:09:26;19.10;1.00
6355;DHT22;3210;48.708;9.030;2022-08-04T01:12:13;19.10;1.00
6355;DHT22;3210;48.708;9.030;2022-08-04T01:17:42;19.00;1.00
6355;DHT22;3210;48.708;9.030;2022-08-04T01:20:19;19.00;1.00
6355;DHT22;3210;48.708;9.030;2022-08-04T01:23:19;19.00;18.00
6355;DHT22;3210;48.708;9.030;2022-08-04T01:26:12;19.10;59.30
6355;DHT22;3210;48.708;9.030;2022-08-04T01:31:52;19.00;84.90
6355;DHT22;3210;48.708;9.030;2022-08-04T01:34:21;18.90;99.90
6355;DHT22;3210;48.708;9.030;2022-08-04T01:36:57;18.90;99.90
6355;DHT22;3210;48.708;9.030;2022-08-04T01:39:33;18.90;99.90
6355;DHT22;3210;48.708;9.030;2022-08-04T01:42:06;18.80;99.90
6355;DHT22;3210;48.708;9.030;2022-08-04T01:44:35;18.80;99.90
6355;DHT22;3210;48.708;9.030;2022-08-04T01:47:03;18.80;99.90
6355;DHT22;3210;48.708;9.030;2022-08-04T01:49:31;18.80;99.90
6355;DHT22;3210;48.708;9.030;2022-08-04T01:51:58;18.90;99.90
6355;DHT22;3210;48.708;9.030;2022-08-04T01:54:25;18.80;99.90
6355;DHT22;3210;48.708;9.030;2022-08-04T01:56:54;18.90;99.90
6355;DHT22;3210;48.708;9.030;2022-08-04T01:59:21;18.90;99.90
6355;DHT22;3210;48.708;9.030;2022-08-04T02:01:48;19.00;99.90
6355;DHT22;3210;48.708;9.030;2022-08-04T02:04:18;19.00;99.90
6355;DHT22;3210;48.708;9.030;2022-08-04T02:06:51;18.90;1.00
6355;DHT22;3210;48.708;9.030;2022-08-04T02:09:25;18.90;1.00
6355;DHT22;3210;48.708;9.030;2022-08-04T02:12:02;18.90;99.90
6355;DHT22;3210;48.708;9.030;2022-08-04T02:14:34;18.90;1.00
6355;DHT22;3210;48.708;9.030;2022-08-04T02:17:11;18.90;1.00
6355;DHT22;3210;48.708;9.030;2022-08-04T02:22:40;18.90;99.90
6355;DHT22;3210;48.708;9.030;2022-08-04T02:25:10;18.80;1.00
6355;DHT22;3210;48.708;9.030;2022-08-04T02:31:02;18.80;1.00
6355;DHT22;3210;48.708;9.030;2022-08-04T02:33:34;18.80;99.90
6355;DHT22;3210;48.708;9.030;2022-08-04T02:36:04;18.80;1.00
6355;DHT22;3210;48.708;9.030;2022-08-04T02:38:46;18.70;99.90
6355;DHT22;3210;48.708;9.030;2022-08-04T02:41:16;18.60;99.90
6355;DHT22;3210;48.708;9.030;2022-08-04T02:43:47;18.50;1.00
6355;DHT22;3210;48.708;9.030;2022-08-04T02:46:16;18.40;22.70
6355;DHT22;3210;48.708;9.030;2022-08-04T02:48:45;18.60;99.90
6355;DHT22;3210;48.708;9.030;2022-08-04T02:51:16;18.50;99.90
6355;DHT22;3210;48.708;9.030;2022-08-04T02:53:45;18.50;1.00
6355;DHT22;3210;48.708;9.030;2022-08-04T02:56:14;18.50;1.00
6355;DHT22;3210;48.708;9.030;2022-08-04T02:58:45;18.40;99.90
6355;DHT22;3210;48.708;9.030;2022-08-04T03:01:14;18.40;99.90
6355;DHT22;3210;48.708;9.030;2022-08-04T03:03:50;18.40;1.00
6355;DHT22;3210;48.708;9.030;2022-08-04T03:10:05;18.30;99.90
6355;DHT22;3210;48.708;9.030;2022-08-04T03:13:07;18.20;1.00
6355;DHT22;3210;48.708;9.030;2022-08-04T03:15:53;18.30;1.00
6355;DHT22;3210;48.708;9.030;2022-08-04T03:18:46;18.20;99.90
6355;DHT22;3210;48.708;9.030;2022-08-04T03:24:35;18.20;1.00
6355;DHT22;3210;48.708;9.030;2022-08-04T03:27:11;18.20;99.90
6355;DHT22;3210;48.708;9.030;2022-08-04T03:32:58;18.10;99.90
6355;DHT22;3210;48.708;9.030;2022-08-04T03:36:05;18.10;99.90
6355;DHT22;3210;48.708;9.030;2022-08-04T03:39:02;18.10;99.90
6355;DHT22;3210;48.708;9.030;2022-08-04T03:47:41;17.90;99.90
6355;DHT22;3210;48.708;9.030;2022-08-04T03:50:27;17.90;99.90
6355;DHT22;3210;48.708;9.030;2022-08-04T03:53:16;17.80;1.00
6355;DHT22;3210;48.708;9.030;2022-08-04T03:58:51;17.70;1.00
6355;DHT22;3210;48.708;9.030;2022-08-04T04:01:34;17.80;1.00
6355;DHT22;3210;48.708;9.030;2022-08-04T04:04:27;17.90;99.90
6355;DHT22;3210;48.708;9.030;2022-08-04T04:07:31;18.00;62.20
6355;DHT22;3210;48.708;9.030;2022-08-04T04:13:17;17.60;99.90
6355;DHT22;3210;48.708;9.030;2022-08-04T04:16:05;17.70;1.00
6355;DHT22;3210;48.708;9.030;2022-08-04T04:19:00;17.80;1.00
6355;DHT22;3210;48.708;9.030;2022-08-04T04:21:50;17.80;99.90
6355;DHT22;3210;48.708;9.030;2022-08-04T04:24:39;17.80;99.90
6355;DHT22;3210;48.708;9.030;2022-08-04T04:27:17;17.80;99.90
6355;DHT22;3210;48.708;9.030;2022-08-04T04:30:03;17.80;99.90
6355;DHT22;3210;48.708;9.030;2022-08-04T04:32:50;17.80;99.90
6355;DHT22;3210;48.708;9.030;2022-08-04T04:35:29;17.80;99.90
6355;DHT22;3210;48.708;9.030;2022-08-04T04:38:22;17.80;99.90
6355;DHT22;3210;48.708;9.030;2022-08-04T04:41:03;17.90;99.90
6355;DHT22;3210;48.708;9.030;2022-08-04T04:43:47;17.90;99.90
6355;DHT22;3210;48.708;9.030;2022-08-04T04:46:31;18.00;1.00
6355;DHT22;3210;48.708;9.030;2022-08-04T04:49:10;18.10;99.90
6355;DHT22;3210;48.708;9.030;2022-08-04T04:51:43;18.20;99.90
6355;DHT22;3210;48.708;9.030;2022-08-04T04:54:32;18.20;1.00
6355;DHT22;3210;48.708;9.030;2022-08-04T04:57:06;18.10;1.00
6355;DHT22;3210;48.708;9.030;2022-08-04T04:59:38;18.30;22.90
6355;DHT22;3210;48.708;9.030;2022-08-04T05:05:45;18.40;1.00
6355;DHT22;3210;48.708;9.030;2022-08-04T05:08:40;18.50;99.90
6355;DHT22;3210;48.708;9.030;2022-08-04T05:14:12;18.70;99.90
6355;DHT22;3210;48.708;9.030;2022-08-04T05:16:44;18.70;99.90
6355;DHT22;3210;48.708;9.030;2022-08-04T05:19:18;18.80;99.90
6355;DHT22;3210;48.708;9.030;2022-08-04T05:21:56;18.90;1.00
6355;DHT22;3210;48.708;9.030;2022-08-04T05:24:27;19.00;1.00
6355;DHT22;3210;48.708;9.030;2022-08-04T05:26:58;19.20;99.90
6355;DHT22;3210;48.708;9.030;2022-08-04T05:29:28;19.20;1.00
6355;DHT22;3210;48.708;9.030;2022-08-04T05:31:56;19.30;99.90
6355;DHT22;3210;48.708;9.030;2022-08-04T05:34:27;19.30;99.90
6355;DHT22;3210;48.708;9.030;2022-08-04T05:36:59;19.40;99.90
6355;DHT22;3210;48.708;9.030;2022-08-04T05:39:28;19.50;99.90
6355;DHT22;3210;48.708;9.030;2022-08-04T05:42:00;19.60;99.90
6355;DHT22;3210;48.708;9.030;2022-08-04T05:44:28;19.60;1.00
6355;DHT22;3210;48.708;9.030;2022-08-04T05:46:57;19.80;99.90
6355;DHT22;3210;48.708;9.030;2022-08-04T05:49:26;19.90;99.90
6355;DHT22;3210;48.708;9.030;2022-08-04T05:51:55;20.00;99.90
6355;DHT22;3210;48.708;9.030;2022-08-04T05:54:24;20.00;99.90
6355;DHT22;3210;48.708;9.030;2022-08-04T05:56:52;20.30;47.80
6355;DHT22;3210;48.708;9.030;2022-08-04T05:59:21;20.50;99.90
6355;DHT22;3210;48.708;9.030;2022-08-04T06:01:50;20.60;1.00
6355;DHT22;3210;48.708;9.030;2022-08-04T06:04:20;20.80;1.00
6355;DHT22;3210;48.708;9.030;2022-08-04T06:06:49;21.00;99.90
6355;DHT22;3210;48.708;9.030;2022-08-04T06:09:16;21.20;99.90
6355;DHT22;3210;48.708;9.030;2022-08-04T06:11:45;21.50;99.90
6355;DHT22;3210;48.708;9.030;2022-08-04T06:14:13;21.80;99.90
6355;DHT22;3210;48.708;9.030;2022-08-04T06:16:43;22.10;99.90
6355;DHT22;3210;48.708;9.030;2022-08-04T06:19:12;22.30;1.00
6355;DHT22;3210;48.708;9.030;2022-08-04T06:21:43;22.60;1.00
6355;DHT22;3210;48.708;9.030;2022-08-04T06:24:16;22.80;99.90
6355;DHT22;3210;48.708;9.030;2022-08-04T06:26:46;23.00;99.90
6355;DHT22;3210;48.708;9.030;2022-08-04T06:29:17;23.20;99.90
6355;DHT22;3210;48.708;9.030;2022-08-04T06:31:49;23.40;1.00
6355;DHT22;3210;48.708;9.030;2022-08-04T06:34:25;23.50;1.00
6355;DHT22;3210;48.708;9.030;2022-08-04T06:36:52;23.80;99.90
6355;DHT22;3210;48.708;9.030;2022-08-04T06:39:20;24.10;99.90
6355;DHT22;3210;48.708;9.030;2022-08-04T06:41:51;24.30;99.90
6355;DHT22;3210;48.708;9.030;2022-08-04T06:44:18;24.40;99.90
6355;DHT22;3210;48.708;9.030;2022-08-04T06:46:47;24.30;99.90
6355;DHT22;3210;48.708;9.030;2022-08-04T06:49:14;24.30;99.90
6355;DHT22;3210;48.708;9.030;2022-08-04T06:51:43;24.40;99.90
6355;DHT22;3210;48.708;9.030;2022-08-04T06:54:11;24.50;99.90
6355;DHT22;3210;48.708;9.030;2022-08-04T06:56:38;24.60;99.90
6355;DHT22;3210;48.708;9.030;2022-08-04T06:59:08;24.70;99.90
6355;DHT22;3210;48.708;9.030;2022-08-04T07:01:36;24.80;99.90
6355;DHT22;3210;48.708;9.030;2022-08-04T07:04:04;24.80;99.90
6355;DHT22;3210;48.708;9.030;2022-08-04T07:06:31;24.90;99.90
6355;DHT22;3210;48.708;9.030;2022-08-04T07:08:58;25.00;99.90
6355;DHT22;3210;48.708;9.030;2022-08-04T07:11:26;25.10;99.90
6355;DHT22;3210;48.708;9.030;2022-08-04T07:13:53;25.20;99.90
6355;DHT22;3210;48.708;9.030;2022-08-04T07:16:22;25.30;51.10
6355;DHT22;3210;48.708;9.030;2022-08-04T07:18:49;25.60;31.20
6355;DHT22;3210;48.708;9.030;2022-08-04T07:21:21;25.90;1.00
6355;DHT22;3210;48.708;9.030;2022-08-04T07:23:49;26.00;35.20
6355;DHT22;3210;48.708;9.030;2022-08-04T07:26:16;26.00;1.70
6355;DHT22;3210;48.708;9.030;2022-08-04T07:28:44;25.90;27.00
6355;DHT22;3210;48.708;9.030;2022-08-04T07:31:15;26.20;1.00
6355;DHT22;3210;48.708;9.030;2022-08-04T07:33:44;26.50;1.00
6355;DHT22;3210;48.708;9.030;2022-08-04T07:36:13;26.80;1.00
6355;DHT22;3210;48.708;9.030;2022-08-04T07:38:41;27.00;1.00
6355;DHT22;3210;48.708;9.030;2022-08-04T07:41:08;27.20;1.00
6355;DHT22;3210;48.708;9.030;2022-08-04T07:43:35;27.30;1.00
6355;DHT22;3210;48.708;9.030;2022-08-04T07:46:03;27.50;1.00
6355;DHT22;3210;48.708;9.030;2022-08-04T07:48:30;27.60;1.00
6355;DHT22;3210;48.708;9.030;2022-08-04T07:50:59;27.70;1.00
6355;DHT22;3210;48.708;9.030;2022-08-04T07:53:26;27.70;1.00
6355;DHT22;3210;48.708;9.030;2022-08-04T07:55:55;27.80;1.00
6355;DHT22;3210;48.708;9.030;2022-08-04T07:58:21;27.90;1.00
6355;DHT22;3210;48.708;9.030;2022-08-04T08:00:48;28.20;1.00
6355;DHT22;3210;48.708;9.030;2022-08-04T08:03:16;28.30;1.00
6355;DHT22;3210;48.708;9.030;2022-08-04T08:05:44;28.40;1.00
6355;DHT22;3210;48.708;9.030;2022-08-04T08:08:12;28.50;1.00
6355;DHT22;3210;48.708;9.030;2022-08-04T08:10:45;28.60;1.00
6355;DHT22;3210;48.708;9.030;2022-08-04T08:13:12;28.70;1.00
6355;DHT22;3210;48.708;9.030;2022-08-04T08:15:40;28.80;1.00
6355;DHT22;3210;48.708;9.030;2022-08-04T08:18:09;28.80;1.00
6355;DHT22;3210;48.708;9.030;2022-08-04T08:20:36;29.10;1.00
6355;DHT22;3210;48.708;9.030;2022-08-04T08:23:03;29.10;1.00
6355;DHT22;3210;48.708;9.030;2022-08-04T08:25:32;29.30;1.00
6355;DHT22;3210;48.708;9.030;2022-08-04T08:28:02;29.40;1.00
6355;DHT22;3210;48.708;9.030;2022-08-04T08:30:29;29.50;1.00
6355;DHT22;3210;48.708;9.030;2022-08-04T08:32:55;29.60;1.00
6355;DHT22;3210;48.708;9.030;2022-08-04T08:35:24;29.70;1.00
6355;DHT22;3210;48.708;9.030;2022-08-04T08:37:56;29.70;1.00
6355;DHT22;3210;48.708;9.030;2022-08-04T08:40:31;29.80;1.00
6355;DHT22;3210;48.708;9.030;2022-08-04T08:43:18;30.00;1.00
6355;DHT22;3210;48.708;9.030;2022-08-04T08:52:16;30.50;1.00
6355;DHT22;3210;48.708;9.030;2022-08-04T08:54:55;30.60;1.00
6355;DHT22;3210;48.708;9.030;2022-08-04T08:57:36;30.70;1.00
6355;DHT22;3210;48.708;9.030;2022-08-04T09:00:13;30.80;1.00
6355;DHT22;3210;48.708;9.030;2022-08-04T09:03:33;30.80;1.00
6355;DHT22;3210;48.708;9.030;2022-08-04T09:06:22;30.80;1.00
6355;DHT22;3210;48.708;9.030;2022-08-04T09:09:05;30.80;1.00
6355;DHT22;3210;48.708;9.030;2022-08-04T09:11:40;31.00;1.00
6355;DHT22;3210;48.708;9.030;2022-08-04T09:14:13;31.10;1.00
6355;DHT22;3210;48.708;9.030;2022-08-04T09:16:50;31.10;1.00
6355;DHT22;3210;48.708;9.030;2022-08-04T09:19:22;31.20;1.00
6355;DHT22;3210;48.708;9.030;2022-08-04T09:21:57;31.50;1.00
6355;DHT22;3210;48.708;9.030;2022-08-04T09:24:30;31.60;1.00
6355;DHT22;3210;48.708;9.030;2022-08-04T09:27:08;31.60;1.00
6355;DHT22;3210;48.708;9.030;2022-08-04T09:29:42;31.80;1.00
6355;DHT22;3210;48.708;9.030;2022-08-04T09:32:22;32.00;1.00
6355;DHT22;3210;48.708;9.030;2022-08-04T09:35:00;32.00;1.00
6355;DHT22;3210;48.708;9.030;2022-08-04T09:37:35;32.10;1.00
6355;DHT22;3210;48.708;9.030;2022-08-04T09:40:07;32.10;1.00
6355;DHT22;3210;48.708;9.030;2022-08-04T09:42:43;32.30;1.00
6355;DHT22;3210;48.708;9.030;2022-08-04T09:45:18;32.40;1.00
6355;DHT22;3210;48.708;9.030;2022-08-04T09:47:56;32.40;1.00
6355;DHT22;3210;48.708;9.030;2022-08-04T09:50:33;32.50;1.00
6355;DHT22;3210;48.708;9.030;2022-08-04T09:53:12;32.60;99.90
6355;DHT22;3210;48.708;9.030;2022-08-04T09:55:53;32.60;99.90
6355;DHT22;3210;48.708;9.030;2022-08-04T09:58:27;32.40;1.00
6355;DHT22;3210;48.708;9.030;2022-08-04T10:01:00;32.40;99.90
6355;DHT22;3210;48.708;9.030;2022-08-04T10:03:34;32.70;99.90
6355;DHT22;3210;48.708;9.030;2022-08-04T10:06:10;32.80;99.90
6355;DHT22;3210;48.708;9.030;2022-08-04T10:08:55;32.90;99.90
6355;DHT22;3210;48.708;9.030;2022-08-04T10:11:37;33.10;99.90
6355;DHT22;3210;48.708;9.030;2022-08-04T10:14:15;33.00;99.90
6355;DHT22;3210;48.708;9.030;2022-08-04T10:16:50;33.00;99.90
6355;DHT22;3210;48.708;9.030;2022-08-04T10:19:25;33.10;99.90
6355;DHT22;3210;48.708;9.030;2022-08-04T10:22:00;33.10;99.90
6355;DHT22;3210;48.708;9.030;2022-08-04T10:24:38;33.40;99.90
6355;DHT22;3210;48.708;9.030;2022-08-04T10:27:11;33.60;99.90
6355;DHT22;3210;48.708;9.030;2022-08-04T10:29:42;33.60;99.90
6355;DHT22;3210;48.708;9.030;2022-08-04T10:32:14;33.30;99.90
6355;DHT22;3210;48.708;9.030;2022-08-04T10:35:06;33.30;99.90
6355;DHT22;3210;48.708;9.030;2022-08-04T10:37:39;33.30;99.90
6355;DHT22;3210;48.708;9.030;2022-08-04T10:40:13;33.50;99.90
6355;DHT22;3210;48.708;9.030;2022-08-04T10:43:02;33.60;99.90
6355;DHT22;3210;48.708;9.030;2022-08-04T10:45:37;33.50;99.90
6355;DHT22;3210;48.708;9.030;2022-08-04T10:48:12;33.40;99.90
6355;DHT22;3210;48.708;9.030;2022-08-04T10:51:01;33.70;99.90
6355;DHT22;3210;48.708;9.030;2022-08-04T10:53:30;33.40;99.90
6355;DHT22;3210;48.708;9.030;2022-08-04T10:56:02;33.60;99.90
6355;DHT22;3210;48.708;9.030;2022-08-04T10:58:38;33.80;99.90
6355;DHT22;3210;48.708;9.030;2022-08-04T11:01:13;33.80;99.90
6355;DHT22;3210;48.708;9.030;2022-08-04T11:03:48;33.80;99.90
6355;DHT22;3210;48.708;9.030;2022-08-04T11:06:17;33.90;99.90
6355;DHT22;3210;48.708;9.030;2022-08-04T11:08:47;33.50;99.90
6355;DHT22;3210;48.708;9.030;2022-08-04T11:11:21;33.60;99.90
6355;DHT22;3210;48.708;9.030;2022-08-04T11:13:57;33.80;99.90
6355;DHT22;3210;48.708;9.030;2022-08-04T11:16:27;33.80;99.90
6355;DHT22;3210;48.708;9.030;2022-08-04T11:19:07;34.10;99.90
6355;DHT22;3210;48.708;9.030;2022-08-04T11:21:42;34.40;99.90
6355;DHT22;3210;48.708;9.030;2022-08-04T11:24:15;34.60;99.90
6355;DHT22;3210;48.708;9.030;2022-08-04T11:26:46;34.50;99.90
6355;DHT22;3210;48.708;9.030;2022-08-04T11:29:19;34.20;99.90
6355;DHT22;3210;48.708;9.030;2022-08-04T11:31:49;34.10;99.90
6355;DHT22;3210;48.708;9.030;2022-08-04T11:34:19;34.30;99.90
6355;DHT22;3210;48.708;9.030;2022-08-04T11:36:51;34.50;99.90
6355;DHT22;3210;48.708;9.030;2022-08-04T11:39:25;34.80;99.90
6355;DHT22;3210;48.708;9.030;2022-08-04T11:41:57;35.10;99.90
6355;DHT22;3210;48.708;9.030;2022-08-04T11:44:30;34.90;99.90
6355;DHT22;3210;48.708;9.030;2022-08-04T11:47:02;34.80;99.90
6355;DHT22;3210;48.708;9.030;2022-08-04T11:49:33;35.00;99.90
6355;DHT22;3210;48.708;9.030;2022-08-04T11:52:03;35.20;99.90
6355;DHT22;3210;48.708;9.030;2022-08-04T11:54:32;35.40;99.90
6355;DHT22;3210;48.708;9.030;2022-08-04T11:57:00;35.60;99.90
6355;DHT22;3210;48.708;9.030;2022-08-04T11:59:28;35.60;99.90
6355;DHT22;3210;48.708;9.030;2022-08-04T12:02:15;35.70;99.90
6355;DHT22;3210;48.708;9.030;2022-08-04T12:04:53;35.60;99.90
6355;DHT22;3210;48.708;9.030;2022-08-04T12:07:40;35.90;99.90
6355;DHT22;3210;48.708;9.030;2022-08-04T12:10:20;35.90;99.90
6355;DHT22;3210;48.708;9.030;2022-08-04T12:12:57;35.80;99.90
6355;DHT22;3210;48.708;9.030;2022-08-04T12:15:28;35.20;99.90
6355;DHT22;3210;48.708;9.030;2022-08-04T12:18:03;34.70;99.90
6355;DHT22;3210;48.708;9.030;2022-08-04T12:20:40;34.40;99.90
6355;DHT22;3210;48.708;9.030;2022-08-04T12:23:15;34.60;99.90
6355;DHT22;3210;48.708;9.030;2022-08-04T12:25:46;35.00;99.90
6355;DHT22;3210;48.708;9.030;2022-08-04T12:28:19;35.20;99.90
6355;DHT22;3210;48.708;9.030;2022-08-04T12:30:51;35.40;99.90
6355;DHT22;3210;48.708;9.030;2022-08-04T12:33:26;35.70;99.90
6355;DHT22;3210;48.708;9.030;2022-08-04T12:35:59;35.90;99.90
6355;DHT22;3210;48.708;9.030;2022-08-04T12:38:31;35.70;99.90
6355;DHT22;3210;48.708;9.030;2022-08-04T12:41:00;35.90;99.90
6355;DHT22;3210;48.708;9.030;2022-08-04T12:43:33;36.00;99.90
6355;DHT22;3210;48.708;9.030;2022-08-04T12:46:03;35.90;99.90
6355;DHT22;3210;48.708;9.030;2022-08-04T12:48:32;35.50;99.90
6355;DHT22;3210;48.708;9.030;2022-08-04T12:50:59;35.20;99.90
6355;DHT22;3210;48.708;9.030;2022-08-04T12:53:29;35.30;99.90
6355;DHT22;3210;48.708;9.030;2022-08-04T12:55:57;35.40;99.90
6355;DHT22;3210;48.708;9.030;2022-08-04T12:58:27;35.60;99.90
6355;DHT22;3210;48.708;9.030;2022-08-04T13:00:57;35.20;99.90
6355;DHT22;3210;48.708;9.030;2022-08-04T13:03:28;35.20;99.90
6355;DHT22;3210;48.708;9.030;2022-08-04T13:05:55;35.20;99.90
6355;DHT22;3210;48.708;9.030;2022-08-04T13:08:23;35.40;99.90
6355;DHT22;3210;48.708;9.030;2022-08-04T13:10:52;35.60;99.90
6355;DHT22;3210;48.708;9.030;2022-08-04T13:13:24;35.70;99.90
6355;DHT22;3210;48.708;9.030;2022-08-04T13:15:57;35.30;99.90
6355;DHT22;3210;48.708;9.030;2022-08-04T13:18:26;35.20;99.90
6355;DHT22;3210;48.708;9.030;2022-08-04T13:20:54;35.20;99.90
6355;DHT22;3210;48.708;9.030;2022-08-04T13:23:25;35.40;99.90
6355;DHT22;3210;48.708;9.030;2022-08-04T13:25:55;35.30;99.90
6355;DHT22;3210;48.708;9.030;2022-08-04T13:28:24;35.20;99.90
6355;DHT22;3210;48.708;9.030;2022-08-04T13:30:54;35.10;99.90
6355;DHT22;3210;48.708;9.030;2022-08-04T13:33:25;35.00;99.90
6355;DHT22;3210;48.708;9.030;2022-08-04T13:35:55;34.90;99.90
6355;DHT22;3210;48.708;9.030;2022-08-04T13:38:24;35.20;99.90
6355;DHT22;3210;48.708;9.030;2022-08-04T13:40:55;35.60;99.90
6355;DHT22;3210;48.708;9.030;2022-08-04T13:43:25;35.30;99.90
6355;DHT22;3210;48.708;9.030;2022-08-04T13:45:58;35.50;99.90
6355;DHT22;3210;48.708;9.030;2022-08-04T13:48:30;35.40;99.90
6355;DHT22;3210;48.708;9.030;2022-08-04T13:51:00;35.30;99.90
6355;DHT22;3210;48.708;9.030;2022-08-04T13:53:30;35.10;99.90
6355;DHT22;3210;48.708;9.030;2022-08-04T13:55:59;34.90;99.90
6355;DHT22;3210;48.708;9.030;2022-08-04T13:58:29;35.10;99.90
6355;DHT22;3210;48.708;9.030;2022-08-04T14:00:59;35.20;99.90
6355;DHT22;3210;48.708;9.030;2022-08-04T14:03:29;34.80;99.90
6355;DHT22;3210;48.708;9.030;2022-08-04T14:06:15;34.40;99.90
6355;DHT22;3210;48.708;9.030;2022-08-04T14:08:48;34.30;99.90
6355;DHT22;3210;48.708;9.030;2022-08-04T14:11:19;34.40;99.90
6355;DHT22;3210;48.708;9.030;2022-08-04T14:13:47;34.60;99.90
6355;DHT22;3210;48.708;9.030;2022-08-04T14:16:16;34.60;99.90
6355;DHT22;3210;48.708;9.030;2022-08-04T14:18:42;34.70;99.90
6355;DHT22;3210;48.708;9.030;2022-08-04T14:21:10;34.90;99.90
6355;DHT22;3210;48.708;9.030;2022-08-04T14:23:43;34.90;99.90
6355;DHT22;3210;48.708;9.030;2022-08-04T14:26:24;34.70;99.90
6355;DHT22;3210;48.708;9.030;2022-08-04T14:28:53;34.50;99.90
6355;DHT22;3210;48.708;9.030;2022-08-04T14:31:23;34.60;99.90
6355;DHT22;3210;48.708;9.030;2022-08-04T14:33:52;34.80;99.90
6355;DHT22;3210;48.708;9.030;2022-08-04T14:36:19;35.10;99.90
6355;DHT22;3210;48.708;9.030;2022-08-04T14:38:54;35.20;99.90
6355;DHT22;3210;48.708;9.030;2022-08-04T14:41:24;35.30;99.90
6355;DHT22;3210;48.708;9.030;2022-08-04T14:43:54;35.50;99.90
6355;DHT22;3210;48.708;9.030;2022-08-04T14:46:21;35.50;99.90
6355;DHT22;3210;48.708;9.030;2022-08-04T14:49:06;35.70;99.90
6355;DHT22;3210;48.708;9.030;2022-08-04T14:51:35;35.80;99.90
6355;DHT22;3210;48.708;9.030;2022-08-04T14:54:03;35.80;99.90
6355;DHT22;3210;48.708;9.030;2022-08-04T14:56:32;36.20;99.90
6355;DHT22;3210;48.708;9.030;2022-08-04T14:59:02;36.20;99.90
6355;DHT22;3210;48.708;9.030;2022-08-04T15:01:30;36.00;99.90
6355;DHT22;3210;48.708;9.030;2022-08-04T15:04:00;36.00;99.90
6355;DHT22;3210;48.708;9.030;2022-08-04T15:06:29;35.90;99.90
6355;DHT22;3210;48.708;9.030;2022-08-04T15:08:58;35.90;99.90
6355;DHT22;3210;48.708;9.030;2022-08-04T15:11:25;35.80;99.90
6355;DHT22;3210;48.708;9.030;2022-08-04T15:13:55;35.90;99.90
6355;DHT22;3210;48.708;9.030;2022-08-04T15:16:24;35.80;99.90
6355;DHT22;3210;48.708;9.030;2022-08-04T15:18:52;35.70;99.90
6355;DHT22;3210;48.708;9.030;2022-08-04T15:21:19;35.50;99.90
6355;DHT22;3210;48.708;9.030;2022-08-04T15:23:46;35.40;99.90
6355;DHT22;3210;48.708;9.030;2022-08-04T15:26:16;35.40;99.90
6355;DHT22;3210;48.708;9.030;2022-08-04T15:28:47;35.20;99.90
6355;DHT22;3210;48.708;9.030;2022-08-04T15:31:16;35.30;99.90
6355;DHT22;3210;48.708;9.030;2022-08-04T15:33:47;35.50;99.90
6355;DHT22;3210;48.708;9.030;2022-08-04T15:36:21;35.60;99.90
6355;DHT22;3210;48.708;9.030;2022-08-04T15:38:59;35.60;99.90
6355;DHT22;3210;48.708;9.030;2022-08-04T15:41:34;35.60;99.90
6355;DHT22;3210;48.708;9.030;2022-08-04T15:44:37;35.70;99.90
6355;DHT22;3210;48.708;9.030;2022-08-04T15:47:14;35.60;99.90
6355;DHT22;3210;48.708;9.030;2022-08-04T15:49:42;35.40;99.90
6355;DHT22;3210;48.708;9.030;2022-08-04T15:52:11;35.10;99.90
